createdAt,value
2019-03-17T00:00:01.691Z,63.29
2019-03-17T00:02:48.911Z,62.98
2019-03-17T00:05:36.641Z,61.85
2019-03-17T00:08:24.577Z,62.57
2019-03-17T00:11:12.519Z,63.42
2019-03-17T00:14:00.142Z,63.46
2019-03-17T00:16:47.975Z,64.13
2019-03-17T00:19:35.225Z,63.58
2019-03-17T00:22:22.929Z,62.22
2019-03-17T00:25:10.560Z,62.88
2019-03-17T00:27:57.979Z,63.14
2019-03-17T00:30:45.609Z,62.48
2019-03-17T00:33:36.294Z,62.64
2019-03-17T00:36:22.123Z,63.15
2019-03-17T00:39:09.825Z,63.72
2019-03-17T00:41:57.354Z,63.05
2019-03-17T00:44:44.983Z,63.17
2019-03-17T00:47:32.203Z,62.06
2019-03-17T00:50:19.525Z,62.14
2019-03-17T00:53:07.257Z,64.05
2019-03-17T00:55:55.119Z,63.29
2019-03-17T00:58:42.001Z,63.33
2019-03-17T01:01:29.846Z,63.70
2019-03-17T01:04:17.662Z,63.20
2019-03-17T01:07:05.506Z,63.92
2019-03-17T01:09:53.283Z,64.61
2019-03-17T01:12:41.273Z,64.09
2019-03-17T01:15:29.004Z,64.69
2019-03-17T01:18:16.941Z,65.58
2019-03-17T01:21:04.365Z,66.46
2019-03-17T01:23:51.787Z,65.01
2019-03-17T01:26:39.421Z,65.39
2019-03-17T01:29:26.845Z,64.64
2019-03-17T01:32:14.572Z,64.83
2019-03-17T01:35:09.201Z,64.99
2019-03-17T01:37:50.856Z,64.79
2019-03-17T01:40:38.282Z,65.05
2019-03-17T01:43:26.113Z,63.91
2019-03-17T01:46:13.638Z,64.35
2019-03-17T01:49:01.065Z,64.27
2019-03-17T01:51:48.489Z,63.81
2019-03-17T01:54:35.811Z,64.07
2019-03-17T01:57:23.234Z,64.73
2019-03-17T02:00:13.525Z,65.86
2019-03-17T02:03:01.256Z,64.90
2019-03-17T02:05:48.888Z,64.39
2019-03-17T02:08:36.310Z,63.47
2019-03-17T02:11:23.835Z,63.33
2019-03-17T02:14:11.260Z,63.32
2019-03-17T02:16:58.888Z,64.48
2019-03-17T02:19:46.314Z,64.09
2019-03-17T02:22:33.840Z,63.46
2019-03-17T02:25:21.777Z,64.52
2019-03-17T02:28:09.506Z,65.43
2019-03-17T02:30:56.738Z,65.26
2019-03-17T02:33:43.948Z,65.23
2019-03-17T02:36:31.783Z,64.60
2019-03-17T02:39:19.112Z,64.64
2019-03-17T02:42:06.734Z,64.69
2019-03-17T02:44:54.566Z,64.24
2019-03-17T02:47:42.310Z,64.55
2019-03-17T02:50:29.624Z,64.37
2019-03-17T02:53:17.556Z,63.84
2019-03-17T02:56:05.490Z,63.47
2019-03-17T02:58:52.797Z,64.38
2019-03-17T03:01:42.182Z,63.46
2019-03-17T03:04:29.907Z,64.50
2019-03-17T03:07:17.442Z,64.49
2019-03-17T03:10:06.328Z,63.98
2019-03-17T03:12:54.034Z,63.72
2019-03-17T03:15:41.674Z,64.08
2019-03-17T03:18:29.599Z,64.57
2019-03-17T03:21:17.133Z,63.92
2019-03-17T03:24:04.854Z,63.17
2019-03-17T03:26:51.968Z,63.81
2019-03-17T03:29:39.802Z,65.21
2019-03-17T03:32:26.818Z,64.29
2019-03-17T03:35:14.861Z,63.17
2019-03-17T03:38:01.889Z,62.68
2019-03-17T03:40:49.707Z,62.39
2019-03-17T03:43:37.235Z,62.56
2019-03-17T03:46:24.968Z,61.82
2019-03-17T03:49:12.490Z,61.61
2019-03-17T03:51:59.918Z,61.85
2019-03-17T03:54:47.353Z,61.64
2019-03-17T03:57:34.964Z,61.35
2019-03-17T04:00:22.493Z,61.60
2019-03-17T04:03:10.233Z,61.65
2019-03-17T04:05:57.749Z,61.33
2019-03-17T04:08:45.182Z,61.77
2019-03-17T04:11:32.809Z,61.97
2019-03-17T04:14:20.332Z,62.16
2019-03-17T04:17:07.869Z,62.38
2019-03-17T04:19:55.691Z,61.89
2019-03-17T04:22:43.116Z,61.46
2019-03-17T04:25:30.951Z,60.61
2019-03-17T04:28:18.270Z,60.67
2019-03-17T04:31:05.695Z,60.58
2019-03-17T04:33:53.220Z,61.04
2019-03-17T04:36:41.190Z,60.92
2019-03-17T04:39:28.685Z,60.69
2019-03-17T04:42:16.212Z,61.20
2019-03-17T04:45:04.085Z,61.44
2019-03-17T04:47:51.773Z,61.11
2019-03-17T04:50:39.608Z,61.08
2019-03-17T04:53:27.136Z,60.63
2019-03-17T04:56:14.456Z,62.46
2019-03-17T04:59:01.884Z,62.14
2019-03-17T05:01:49.508Z,62.15
2019-03-17T05:04:37.141Z,62.77
2019-03-17T05:07:25.076Z,62.16
2019-03-17T05:10:12.713Z,61.19
2019-03-17T05:13:00.744Z,61.07
2019-03-17T05:15:48.392Z,60.34
2019-03-17T05:18:36.000Z,61.10
2019-03-17T05:21:23.220Z,60.14
2019-03-17T05:24:10.645Z,61.18
2019-03-17T05:26:58.684Z,60.83
2019-03-17T05:29:46.111Z,61.49
2019-03-17T05:32:34.045Z,61.53
2019-03-17T05:35:21.160Z,61.27
2019-03-17T05:38:08.687Z,61.75
2019-03-17T05:40:55.906Z,60.20
2019-03-17T05:43:43.125Z,60.46
2019-03-17T05:46:30.757Z,62.38
2019-03-17T05:49:18.079Z,62.70
2019-03-17T05:52:05.706Z,61.77
2019-03-17T05:54:53.445Z,61.00
2019-03-17T05:57:41.166Z,60.69
2019-03-17T06:00:28.694Z,60.23
2019-03-17T06:03:16.466Z,60.94
2019-03-17T06:06:04.156Z,60.68
2019-03-17T06:08:51.274Z,60.43
2019-03-17T06:11:39.110Z,60.63
2019-03-17T06:14:26.837Z,60.75
2019-03-17T06:17:14.057Z,61.57
2019-03-17T06:20:02.815Z,61.65
2019-03-17T06:22:50.354Z,61.33
2019-03-17T06:25:37.563Z,60.71
2019-03-17T06:28:25.086Z,60.83
2019-03-17T06:31:12.514Z,60.43
2019-03-17T06:34:00.589Z,61.19
2019-03-17T06:36:47.952Z,60.61
2019-03-17T06:39:35.603Z,61.52
2019-03-17T06:42:23.237Z,61.52
2019-03-17T06:45:11.579Z,61.23
2019-03-17T06:47:58.901Z,60.78
2019-03-17T06:50:46.480Z,61.52
2019-03-17T06:53:34.155Z,60.81
2019-03-17T06:56:21.585Z,60.41
2019-03-17T06:59:09.217Z,59.66
2019-03-17T07:01:56.945Z,59.62
2019-03-17T07:04:44.671Z,59.75
2019-03-17T07:07:43.294Z,59.86
2019-03-17T07:10:20.954Z,58.64
2019-03-17T07:13:08.687Z,58.08
2019-03-17T07:15:56.521Z,57.62
2019-03-17T07:18:43.667Z,57.64
2019-03-17T07:21:31.367Z,57.57
2019-03-17T07:24:18.793Z,58.21
2019-03-17T07:27:08.846Z,58.03
2019-03-17T07:29:56.001Z,58.76
2019-03-17T07:32:43.528Z,57.73
2019-03-17T07:35:31.420Z,57.30
2019-03-17T07:38:18.784Z,57.85
2019-03-17T07:41:06.514Z,58.10
2019-03-17T07:43:54.037Z,58.46
2019-03-17T07:46:41.565Z,58.47
2019-03-17T07:49:29.299Z,58.84
2019-03-17T07:52:16.723Z,58.81
2019-03-17T07:55:05.254Z,58.23
2019-03-17T07:57:52.869Z,59.04
2019-03-17T08:00:40.630Z,57.82
2019-03-17T08:03:27.955Z,58.55
2019-03-17T08:06:15.479Z,58.33
2019-03-17T08:09:04.859Z,59.76
2019-03-17T08:11:52.069Z,58.98
2019-03-17T08:14:39.698Z,58.30
2019-03-17T08:17:27.108Z,58.24
2019-03-17T08:20:16.081Z,59.09
2019-03-17T08:23:03.511Z,58.96
2019-03-17T08:25:50.623Z,58.60
2019-03-17T08:28:38.356Z,57.64
2019-03-17T08:31:27.357Z,57.80
2019-03-17T08:34:14.540Z,57.88
2019-03-17T08:37:03.294Z,57.04
2019-03-17T08:39:50.613Z,57.91
2019-03-17T08:42:38.242Z,57.67
2019-03-17T08:45:25.668Z,57.28
2019-03-17T08:48:13.507Z,56.68
2019-03-17T08:51:01.131Z,57.26
2019-03-17T08:53:48.962Z,57.36
2019-03-17T08:56:36.077Z,58.26
2019-03-17T08:59:23.710Z,57.63
2019-03-17T09:02:11.438Z,56.76
2019-03-17T09:04:58.659Z,56.98
2019-03-17T09:07:47.416Z,56.15
2019-03-17T09:10:34.939Z,56.15
2019-03-17T09:13:22.666Z,56.43
2019-03-17T09:16:10.001Z,56.92
2019-03-17T09:18:57.216Z,56.58
2019-03-17T09:21:44.642Z,55.98
2019-03-17T09:24:32.162Z,57.49
2019-03-17T09:27:19.793Z,56.77
2019-03-17T09:30:15.510Z,56.64
2019-03-17T09:33:02.838Z,57.32
2019-03-17T09:35:50.235Z,57.26
2019-03-17T09:38:46.609Z,57.25
2019-03-17T09:41:26.948Z,58.31
2019-03-17T09:44:14.249Z,57.65
2019-03-17T09:47:01.701Z,56.91
2019-03-17T09:49:49.742Z,56.29
2019-03-17T09:52:36.861Z,56.01
2019-03-17T09:55:24.514Z,56.29
2019-03-17T09:58:12.320Z,56.79
2019-03-17T10:01:00.556Z,57.99
2019-03-17T10:03:48.288Z,57.96
2019-03-17T10:06:36.280Z,58.77
2019-03-17T10:09:24.083Z,58.99
2019-03-17T10:12:11.686Z,59.48
2019-03-17T10:14:59.116Z,58.92
2019-03-17T10:17:47.050Z,60.25
2019-03-17T10:20:35.904Z,59.72
2019-03-17T10:23:24.054Z,59.69
2019-03-17T10:26:11.878Z,58.85
2019-03-17T10:28:59.099Z,59.17
2019-03-17T10:31:46.932Z,61.17
2019-03-17T10:34:34.668Z,62.21
2019-03-17T10:37:22.778Z,61.97
2019-03-17T10:40:14.928Z,62.96
2019-03-17T10:43:02.365Z,63.76
2019-03-17T10:45:49.819Z,63.85
2019-03-17T10:48:37.330Z,62.75
2019-03-17T10:51:24.756Z,63.81
2019-03-17T10:54:15.001Z,64.17
2019-03-17T10:57:03.007Z,63.51
2019-03-17T10:59:50.594Z,62.62
2019-03-17T11:02:37.864Z,62.67
2019-03-17T11:05:25.239Z,62.59
2019-03-17T11:08:13.491Z,62.13
2019-03-17T11:11:00.906Z,62.71
2019-03-17T11:13:48.849Z,63.56
2019-03-17T11:16:36.681Z,64.15
2019-03-17T11:19:25.712Z,62.43
2019-03-17T11:22:13.163Z,62.72
2019-03-17T11:25:00.897Z,61.70
2019-03-17T11:27:48.937Z,62.74
2019-03-17T11:30:37.301Z,62.96
2019-03-17T11:33:25.319Z,62.55
2019-03-17T11:36:12.746Z,62.20
2019-03-17T11:39:00.883Z,61.16
2019-03-17T11:41:48.824Z,61.81
2019-03-17T11:44:36.242Z,61.81
2019-03-17T11:47:24.075Z,60.41
2019-03-17T11:50:16.473Z,60.49
2019-03-17T11:53:05.275Z,60.74
2019-03-17T11:55:53.526Z,60.61
2019-03-17T11:58:41.078Z,61.35
2019-03-17T12:01:28.281Z,61.43
2019-03-17T12:04:16.098Z,60.56
2019-03-17T12:07:03.634Z,60.75
2019-03-17T12:09:52.426Z,61.56
2019-03-17T12:12:40.199Z,59.91
2019-03-17T12:15:33.730Z,60.38
2019-03-17T12:18:21.592Z,60.39
2019-03-17T12:21:09.757Z,60.05
2019-03-17T12:23:57.692Z,60.28
2019-03-17T12:26:45.117Z,60.20
2019-03-17T12:29:32.949Z,61.17
2019-03-17T12:32:20.714Z,62.07
2019-03-17T12:35:10.086Z,62.10
2019-03-17T12:37:57.272Z,62.16
2019-03-17T12:40:44.707Z,60.83
2019-03-17T12:43:32.143Z,61.78
2019-03-17T12:46:19.853Z,61.40
2019-03-17T12:49:08.036Z,61.72
2019-03-17T12:51:55.528Z,61.69
2019-03-17T12:54:43.465Z,61.40
2019-03-17T12:57:30.674Z,60.84
2019-03-17T13:00:26.399Z,59.33
2019-03-17T13:03:14.029Z,59.88
2019-03-17T13:06:01.515Z,60.13
2019-03-17T13:08:48.984Z,59.72
2019-03-17T13:11:36.396Z,59.11
2019-03-17T13:14:23.720Z,60.60
2019-03-17T13:17:11.246Z,59.78
2019-03-17T13:19:59.320Z,58.72
2019-03-17T13:22:46.523Z,57.25
2019-03-17T13:25:34.136Z,57.56
2019-03-17T13:28:21.868Z,58.23
2019-03-17T13:31:10.009Z,58.14
2019-03-17T13:33:57.535Z,57.60
2019-03-17T13:36:46.675Z,57.38
2019-03-17T13:39:34.021Z,57.71
2019-03-17T13:42:21.749Z,57.81
2019-03-17T13:45:11.822Z,56.88
2019-03-17T13:47:59.444Z,56.64
2019-03-17T13:50:46.690Z,55.23
2019-03-17T13:53:34.313Z,55.71
2019-03-17T13:56:21.741Z,55.84
2019-03-17T13:59:09.673Z,55.43
2019-03-17T14:01:57.096Z,55.51
2019-03-17T14:04:44.833Z,56.06
2019-03-17T14:07:32.665Z,56.65
2019-03-17T14:10:22.325Z,56.62
2019-03-17T14:13:09.866Z,56.51
2019-03-17T14:15:57.192Z,55.42
2019-03-17T14:18:44.713Z,54.50
2019-03-17T14:21:32.349Z,55.64
2019-03-17T14:24:19.768Z,55.47
2019-03-17T14:27:07.558Z,55.99
2019-03-17T14:29:55.129Z,55.34
2019-03-17T14:32:42.245Z,55.54
2019-03-17T14:35:29.877Z,55.27
2019-03-17T14:38:17.403Z,55.40
2019-03-17T14:41:04.620Z,55.66
2019-03-17T14:43:52.249Z,55.88
2019-03-17T14:46:41.618Z,55.77
2019-03-17T14:49:31.045Z,55.19
2019-03-17T14:52:18.619Z,55.54
2019-03-17T14:55:07.050Z,56.59
2019-03-17T14:57:54.492Z,55.88
2019-03-17T15:00:41.811Z,55.34
2019-03-17T15:03:29.237Z,55.76
2019-03-17T15:06:16.970Z,55.94
2019-03-17T15:09:06.951Z,55.45
2019-03-17T15:11:54.377Z,55.58
2019-03-17T15:14:41.497Z,55.34
2019-03-17T15:17:29.223Z,54.79
2019-03-17T15:20:25.621Z,56.38
2019-03-17T15:23:13.614Z,55.24
2019-03-17T15:26:01.439Z,55.62
2019-03-17T15:28:48.560Z,55.62
2019-03-17T15:31:36.381Z,54.96
2019-03-17T15:34:24.219Z,55.27
2019-03-17T15:37:13.281Z,55.17
2019-03-17T15:40:00.700Z,55.39
2019-03-17T15:42:48.432Z,56.15
2019-03-17T15:45:35.659Z,55.44
2019-03-17T15:48:23.491Z,54.51
2019-03-17T15:51:20.295Z,55.01
2019-03-17T15:54:00.176Z,54.16
2019-03-17T15:56:47.806Z,53.60
2019-03-17T15:59:35.434Z,53.58
2019-03-17T16:02:23.166Z,52.26
2019-03-17T16:05:10.887Z,52.40
2019-03-17T16:07:58.462Z,53.19
2019-03-17T16:10:46.360Z,52.39
2019-03-17T16:13:33.799Z,53.34
2019-03-17T16:16:21.114Z,53.79
2019-03-17T16:19:08.819Z,54.18
2019-03-17T16:21:56.379Z,54.46
2019-03-17T16:24:44.115Z,54.13
2019-03-17T16:27:31.929Z,53.71
2019-03-17T16:30:21.773Z,54.33
2019-03-17T16:33:08.841Z,55.92
2019-03-17T16:35:56.557Z,58.91
2019-03-17T16:38:43.878Z,59.36
2019-03-17T16:41:42.769Z,59.33
2019-03-17T16:44:20.676Z,59.68
2019-03-17T16:47:08.099Z,59.16
2019-03-17T16:49:55.625Z,58.48
2019-03-17T16:52:43.460Z,58.36
2019-03-17T16:55:30.998Z,58.15
2019-03-17T16:58:18.824Z,57.74
2019-03-17T17:01:06.657Z,57.71
2019-03-17T17:04:31.625Z,57.75
2019-03-17T17:07:20.931Z,57.60
2019-03-17T17:10:13.880Z,57.75
2019-03-17T17:13:01.922Z,57.66
2019-03-17T17:15:49.448Z,57.56
2019-03-17T17:18:37.945Z,57.42
2019-03-17T17:21:25.607Z,57.28
2019-03-17T17:24:13.558Z,57.68
2019-03-17T17:27:01.086Z,57.39
2019-03-17T17:29:48.618Z,57.10
2019-03-17T17:32:36.345Z,57.17
2019-03-17T17:35:23.977Z,57.18
2019-03-17T17:38:11.412Z,57.39
2019-03-17T17:40:59.027Z,57.41
2019-03-17T17:43:47.784Z,57.38
2019-03-17T17:46:35.208Z,57.40
2019-03-17T17:49:22.642Z,57.41
2019-03-17T17:52:10.155Z,57.65
2019-03-17T17:54:57.907Z,57.69
2019-03-17T17:57:45.009Z,57.93
2019-03-17T18:00:34.274Z,59.01
2019-03-17T18:03:21.592Z,60.04
2019-03-17T18:06:10.246Z,60.27
2019-03-17T18:08:57.467Z,60.65
2019-03-17T18:11:45.196Z,60.05
2019-03-17T18:14:32.623Z,60.12
2019-03-17T18:17:20.252Z,59.58
2019-03-17T18:20:12.801Z,59.84
2019-03-17T18:23:00.117Z,59.67
2019-03-17T18:25:47.548Z,59.38
2019-03-17T18:28:35.274Z,59.25
2019-03-17T18:31:22.804Z,59.12
2019-03-17T18:34:10.536Z,59.79
2019-03-17T18:36:58.068Z,60.09
2019-03-17T18:39:45.894Z,59.59
2019-03-17T18:42:33.607Z,59.93
2019-03-17T18:45:21.604Z,61.26
2019-03-17T18:48:09.800Z,61.54
2019-03-17T18:50:58.600Z,60.61
2019-03-17T18:53:45.981Z,60.48
2019-03-17T18:56:33.610Z,60.14
2019-03-17T18:59:21.039Z,60.02
2019-03-17T19:02:10.097Z,60.39
2019-03-17T19:04:57.833Z,60.45
2019-03-17T19:07:45.354Z,60.70
2019-03-17T19:10:32.992Z,61.42
2019-03-17T19:13:20.513Z,61.36
2019-03-17T19:16:08.178Z,61.76
2019-03-17T19:18:55.768Z,61.78
2019-03-17T19:21:43.096Z,62.08
2019-03-17T19:24:30.823Z,62.86
2019-03-17T19:27:17.841Z,62.19
2019-03-17T19:30:08.331Z,62.33
2019-03-17T19:32:55.857Z,63.19
2019-03-17T19:35:43.793Z,63.11
2019-03-17T19:38:31.219Z,63.46
2019-03-17T19:41:18.643Z,63.55
2019-03-17T19:44:06.481Z,63.15
2019-03-17T19:46:54.338Z,63.27
2019-03-17T19:49:42.046Z,64.49
2019-03-17T19:52:29.774Z,64.22
2019-03-17T19:55:19.347Z,64.49
2019-03-17T19:58:06.976Z,64.84
2019-03-17T20:00:54.503Z,63.97
2019-03-17T20:03:41.723Z,64.47
2019-03-17T20:06:29.675Z,63.70
2019-03-17T20:09:18.006Z,63.64
2019-03-17T20:12:05.738Z,63.74
2019-03-17T20:14:53.877Z,62.83
2019-03-17T20:17:41.609Z,62.22
2019-03-17T20:20:29.039Z,62.70
2019-03-17T20:23:16.788Z,62.51
2019-03-17T20:26:04.291Z,61.96
2019-03-17T20:28:52.332Z,62.44
2019-03-17T20:31:39.449Z,63.11
2019-03-17T20:34:27.280Z,63.43
2019-03-17T20:37:14.911Z,64.16
2019-03-17T20:40:02.332Z,63.97
2019-03-17T20:42:50.475Z,63.91
2019-03-17T20:45:38.019Z,64.24
2019-03-17T20:48:25.656Z,63.78
2019-03-17T20:51:13.565Z,62.84
2019-03-17T20:54:01.430Z,62.43
2019-03-17T20:56:48.631Z,62.09
2019-03-17T20:59:36.402Z,62.19
2019-03-17T21:02:23.785Z,61.90
2019-03-17T21:05:12.426Z,61.62
2019-03-17T21:07:59.747Z,61.71
2019-03-17T21:10:49.851Z,62.76
2019-03-17T21:13:46.276Z,62.80
2019-03-17T21:16:25.815Z,62.86
2019-03-17T21:19:15.181Z,63.09
2019-03-17T21:22:03.014Z,63.14
2019-03-17T21:24:50.770Z,64.83
2019-03-17T21:27:37.860Z,64.25
2019-03-17T21:30:27.403Z,65.14
2019-03-17T21:33:15.885Z,64.26
2019-03-17T21:36:03.820Z,64.37
2019-03-17T21:38:51.041Z,64.76
2019-03-17T21:41:38.473Z,64.90
2019-03-17T21:44:25.990Z,64.40
2019-03-17T21:47:13.517Z,63.72
2019-03-17T21:50:01.149Z,64.06
2019-03-17T21:52:49.108Z,63.52
2019-03-17T21:55:36.719Z,63.16
2019-03-17T21:58:24.443Z,63.90
2019-03-17T22:01:11.968Z,63.81
2019-03-17T22:03:59.091Z,63.97
2019-03-17T22:06:46.841Z,62.91
2019-03-17T22:09:34.448Z,63.29
2019-03-17T22:12:22.284Z,62.27
2019-03-17T22:15:14.627Z,62.59
2019-03-17T22:18:02.078Z,62.01
2019-03-17T22:20:49.883Z,62.39
2019-03-17T22:23:37.301Z,62.04
2019-03-17T22:26:24.827Z,61.56
2019-03-17T22:29:12.618Z,61.74
2019-03-17T22:32:00.598Z,61.81
2019-03-17T22:34:47.922Z,61.05
2019-03-17T22:37:35.549Z,61.28
2019-03-17T22:40:23.283Z,61.68
2019-03-17T22:43:10.915Z,61.46
2019-03-17T22:45:58.845Z,61.45
2019-03-17T22:48:46.576Z,62.23
2019-03-17T22:51:34.109Z,62.34
2019-03-17T22:54:21.525Z,61.73
2019-03-17T22:57:08.849Z,62.13
2019-03-17T22:59:56.378Z,61.79
2019-03-17T23:02:44.004Z,61.90
2019-03-17T23:05:31.636Z,62.45
2019-03-17T23:08:19.159Z,62.35
2019-03-17T23:11:06.889Z,61.78
2019-03-17T23:13:54.521Z,60.86
2019-03-17T23:16:41.950Z,62.23
2019-03-17T23:19:29.782Z,63.31
2019-03-17T23:22:18.233Z,64.11
2019-03-17T23:25:09.234Z,64.86
2019-03-17T23:27:56.760Z,63.75
2019-03-17T23:30:44.509Z,63.74
2019-03-17T23:33:32.122Z,63.62
2019-03-17T23:36:19.854Z,62.57
2019-03-17T23:39:07.582Z,62.20
2019-03-17T23:41:54.903Z,62.30
2019-03-17T23:44:48.805Z,62.06
2019-03-17T23:47:31.083Z,61.32
2019-03-17T23:50:18.510Z,61.93
2019-03-17T23:53:05.934Z,62.57
2019-03-17T23:55:53.356Z,61.92
2019-03-17T23:58:40.779Z,61.51
